sensor_id;sensor_type;location;lat;lon;timestamp;P1;durP1;ratioP1;P2;durP2;ratioP2
8312;SDS011;4194;43.408;24.626;2022-08-19T00:01:37;10.60;;;6.60;;
8312;SDS011;4194;43.408;24.626;2022-08-19T00:04:06;9.93;;;7.90;;
8312;SDS011;4194;43.408;24.626;2022-08-19T00:06:35;10.30;;;6.37;;
8312;SDS011;4194;43.408;24.626;2022-08-19T00:09:03;9.37;;;7.47;;
8312;SDS011;4194;43.408;24.626;2022-08-19T00:11:31;8.90;;;6.93;;
8312;SDS011;4194;43.408;24.626;2022-08-19T00:13:57;11.90;;;6.63;;
8312;SDS011;4194;43.408;24.626;2022-08-19T00:16:23;11.67;;;7.17;;
8312;SDS011;4194;43.408;24.626;2022-08-19T00:18:50;13.67;;;6.77;;
8312;SDS011;4194;43.408;24.626;2022-08-19T00:21:15;18.00;;;7.47;;
8312;SDS011;4194;43.408;24.626;2022-08-19T00:23:42;20.23;;;7.90;;
8312;SDS011;4194;43.408;24.626;2022-08-19T00:26:08;11.33;;;6.73;;
8312;SDS011;4194;43.408;24.626;2022-08-19T00:28:34;12.80;;;6.93;;
8312;SDS011;4194;43.408;24.626;2022-08-19T00:31:01;18.83;;;7.50;;
8312;SDS011;4194;43.408;24.626;2022-08-19T00:33:28;21.70;;;8.07;;
8312;SDS011;4194;43.408;24.626;2022-08-19T00:35:57;12.27;;;7.57;;
8312;SDS011;4194;43.408;24.626;2022-08-19T00:38:29;12.10;;;7.53;;
8312;SDS011;4194;43.408;24.626;2022-08-19T00:40:55;8.90;;;7.77;;
8312;SDS011;4194;43.408;24.626;2022-08-19T00:43:22;11.47;;;7.67;;
8312;SDS011;4194;43.408;24.626;2022-08-19T00:45:49;13.50;;;8.33;;
8312;SDS011;4194;43.408;24.626;2022-08-19T00:48:16;10.33;;;7.87;;
8312;SDS011;4194;43.408;24.626;2022-08-19T00:50:43;14.13;;;7.67;;
8312;SDS011;4194;43.408;24.626;2022-08-19T00:53:13;12.90;;;7.77;;
8312;SDS011;4194;43.408;24.626;2022-08-19T00:55:42;8.87;;;7.53;;
8312;SDS011;4194;43.408;24.626;2022-08-19T00:58:12;11.83;;;8.00;;
8312;SDS011;4194;43.408;24.626;2022-08-19T01:00:42;9.37;;;7.37;;
8312;SDS011;4194;43.408;24.626;2022-08-19T01:03:09;12.27;;;7.47;;
8312;SDS011;4194;43.408;24.626;2022-08-19T01:05:41;12.00;;;8.00;;
8312;SDS011;4194;43.408;24.626;2022-08-19T01:08:08;12.60;;;7.23;;
8312;SDS011;4194;43.408;24.626;2022-08-19T01:11:08;13.87;;;6.67;;
8312;SDS011;4194;43.408;24.626;2022-08-19T01:13:32;12.87;;;7.27;;
8312;SDS011;4194;43.408;24.626;2022-08-19T01:16:03;10.30;;;7.57;;
8312;SDS011;4194;43.408;24.626;2022-08-19T01:18:30;14.00;;;7.40;;
8312;SDS011;4194;43.408;24.626;2022-08-19T01:21:00;12.00;;;7.30;;
8312;SDS011;4194;43.408;24.626;2022-08-19T01:23:32;11.50;;;7.57;;
8312;SDS011;4194;43.408;24.626;2022-08-19T01:26:09;10.43;;;8.00;;
8312;SDS011;4194;43.408;24.626;2022-08-19T01:28:40;7.87;;;7.17;;
8312;SDS011;4194;43.408;24.626;2022-08-19T01:31:08;15.37;;;7.50;;
8312;SDS011;4194;43.408;24.626;2022-08-19T01:33:36;9.10;;;7.50;;
8312;SDS011;4194;43.408;24.626;2022-08-19T01:36:07;9.20;;;8.20;;
8312;SDS011;4194;43.408;24.626;2022-08-19T01:38:37;11.43;;;7.20;;
8312;SDS011;4194;43.408;24.626;2022-08-19T01:41:04;8.47;;;6.93;;
8312;SDS011;4194;43.408;24.626;2022-08-19T01:43:31;12.03;;;7.60;;
8312;SDS011;4194;43.408;24.626;2022-08-19T01:45:57;8.83;;;7.10;;
8312;SDS011;4194;43.408;24.626;2022-08-19T01:48:23;9.97;;;7.87;;
8312;SDS011;4194;43.408;24.626;2022-08-19T01:50:49;9.90;;;7.73;;
8312;SDS011;4194;43.408;24.626;2022-08-19T01:53:14;11.50;;;8.67;;
8312;SDS011;4194;43.408;24.626;2022-08-19T01:55:41;8.67;;;7.53;;
8312;SDS011;4194;43.408;24.626;2022-08-19T01:58:20;10.53;;;7.70;;
8312;SDS011;4194;43.408;24.626;2022-08-19T02:00:51;11.30;;;7.47;;
8312;SDS011;4194;43.408;24.626;2022-08-19T02:03:16;8.67;;;7.57;;
8312;SDS011;4194;43.408;24.626;2022-08-19T02:05:43;11.50;;;8.50;;
8312;SDS011;4194;43.408;24.626;2022-08-19T02:08:09;9.23;;;8.23;;
8312;SDS011;4194;43.408;24.626;2022-08-19T02:10:38;7.90;;;7.20;;
8312;SDS011;4194;43.408;24.626;2022-08-19T02:13:05;10.67;;;7.80;;
8312;SDS011;4194;43.408;24.626;2022-08-19T02:15:31;8.70;;;7.80;;
8312;SDS011;4194;43.408;24.626;2022-08-19T02:17:57;13.43;;;8.10;;
8312;SDS011;4194;43.408;24.626;2022-08-19T02:20:23;10.43;;;7.30;;
8312;SDS011;4194;43.408;24.626;2022-08-19T02:22:49;9.73;;;8.57;;
8312;SDS011;4194;43.408;24.626;2022-08-19T02:25:15;10.67;;;8.30;;
8312;SDS011;4194;43.408;24.626;2022-08-19T02:27:41;11.13;;;8.50;;
8312;SDS011;4194;43.408;24.626;2022-08-19T02:30:08;11.40;;;7.80;;
8312;SDS011;4194;43.408;24.626;2022-08-19T02:32:37;9.33;;;7.80;;
8312;SDS011;4194;43.408;24.626;2022-08-19T02:35:04;8.67;;;7.80;;
8312;SDS011;4194;43.408;24.626;2022-08-19T02:37:30;11.33;;;8.47;;
8312;SDS011;4194;43.408;24.626;2022-08-19T02:40:14;9.77;;;7.87;;
8312;SDS011;4194;43.408;24.626;2022-08-19T02:42:42;11.97;;;8.57;;
8312;SDS011;4194;43.408;24.626;2022-08-19T02:45:08;9.17;;;8.27;;
8312;SDS011;4194;43.408;24.626;2022-08-19T02:47:34;10.53;;;8.70;;
8312;SDS011;4194;43.408;24.626;2022-08-19T02:50:01;9.73;;;7.90;;
8312;SDS011;4194;43.408;24.626;2022-08-19T02:52:27;12.13;;;9.03;;
8312;SDS011;4194;43.408;24.626;2022-08-19T02:54:53;11.93;;;8.23;;
8312;SDS011;4194;43.408;24.626;2022-08-19T02:57:22;9.77;;;7.47;;
8312;SDS011;4194;43.408;24.626;2022-08-19T02:59:49;9.27;;;7.97;;
8312;SDS011;4194;43.408;24.626;2022-08-19T03:02:15;11.03;;;8.77;;
8312;SDS011;4194;43.408;24.626;2022-08-19T03:04:41;10.20;;;8.83;;
8312;SDS011;4194;43.408;24.626;2022-08-19T03:07:07;12.30;;;9.07;;
8312;SDS011;4194;43.408;24.626;2022-08-19T03:09:36;12.50;;;9.10;;
8312;SDS011;4194;43.408;24.626;2022-08-19T03:12:03;10.00;;;8.90;;
8312;SDS011;4194;43.408;24.626;2022-08-19T03:14:30;15.47;;;8.93;;
8312;SDS011;4194;43.408;24.626;2022-08-19T03:16:56;15.67;;;10.37;;
8312;SDS011;4194;43.408;24.626;2022-08-19T03:19:22;17.53;;;9.10;;
8312;SDS011;4194;43.408;24.626;2022-08-19T03:21:48;14.40;;;9.23;;
8312;SDS011;4194;43.408;24.626;2022-08-19T03:24:15;18.03;;;9.67;;
8312;SDS011;4194;43.408;24.626;2022-08-19T03:26:47;15.07;;;8.60;;
8312;SDS011;4194;43.408;24.626;2022-08-19T03:29:14;12.90;;;9.23;;
8312;SDS011;4194;43.408;24.626;2022-08-19T03:31:42;10.37;;;8.90;;
8312;SDS011;4194;43.408;24.626;2022-08-19T03:34:13;14.77;;;8.70;;
8312;SDS011;4194;43.408;24.626;2022-08-19T03:36:42;16.97;;;9.87;;
8312;SDS011;4194;43.408;24.626;2022-08-19T03:39:09;15.23;;;10.20;;
8312;SDS011;4194;43.408;24.626;2022-08-19T03:41:36;11.17;;;10.03;;
8312;SDS011;4194;43.408;24.626;2022-08-19T03:44:04;12.73;;;10.13;;
8312;SDS011;4194;43.408;24.626;2022-08-19T03:46:31;13.30;;;9.00;;
8312;SDS011;4194;43.408;24.626;2022-08-19T03:48:59;14.67;;;9.40;;
8312;SDS011;4194;43.408;24.626;2022-08-19T03:51:31;12.37;;;9.37;;
8312;SDS011;4194;43.408;24.626;2022-08-19T03:53:58;16.40;;;9.70;;
8312;SDS011;4194;43.408;24.626;2022-08-19T03:56:26;11.67;;;9.23;;
8312;SDS011;4194;43.408;24.626;2022-08-19T03:58:56;14.00;;;9.33;;
8312;SDS011;4194;43.408;24.626;2022-08-19T04:01:23;12.30;;;9.70;;
8312;SDS011;4194;43.408;24.626;2022-08-19T04:03:53;12.90;;;9.97;;
8312;SDS011;4194;43.408;24.626;2022-08-19T04:06:25;15.60;;;9.17;;
8312;SDS011;4194;43.408;24.626;2022-08-19T04:08:53;16.13;;;11.07;;
8312;SDS011;4194;43.408;24.626;2022-08-19T04:11:21;13.00;;;9.43;;
8312;SDS011;4194;43.408;24.626;2022-08-19T04:13:49;12.33;;;8.63;;
8312;SDS011;4194;43.408;24.626;2022-08-19T04:16:17;12.33;;;8.67;;
8312;SDS011;4194;43.408;24.626;2022-08-19T04:18:45;15.18;;;9.80;;
8312;SDS011;4194;43.408;24.626;2022-08-19T04:21:15;12.07;;;8.73;;
8312;SDS011;4194;43.408;24.626;2022-08-19T04:23:45;14.53;;;8.63;;
8312;SDS011;4194;43.408;24.626;2022-08-19T04:26:15;12.07;;;8.93;;
8312;SDS011;4194;43.408;24.626;2022-08-19T04:28:43;10.13;;;9.10;;
8312;SDS011;4194;43.408;24.626;2022-08-19T04:31:17;11.03;;;9.30;;
8312;SDS011;4194;43.408;24.626;2022-08-19T04:33:46;11.70;;;8.33;;
8312;SDS011;4194;43.408;24.626;2022-08-19T04:36:16;12.30;;;9.53;;
8312;SDS011;4194;43.408;24.626;2022-08-19T04:38:44;12.67;;;9.50;;
8312;SDS011;4194;43.408;24.626;2022-08-19T04:41:10;17.30;;;9.50;;
8312;SDS011;4194;43.408;24.626;2022-08-19T04:43:54;13.90;;;10.03;;
8312;SDS011;4194;43.408;24.626;2022-08-19T04:46:20;13.33;;;10.20;;
8312;SDS011;4194;43.408;24.626;2022-08-19T04:48:46;13.93;;;9.77;;
8312;SDS011;4194;43.408;24.626;2022-08-19T04:51:12;17.37;;;9.40;;
8312;SDS011;4194;43.408;24.626;2022-08-19T04:53:39;20.70;;;10.47;;
8312;SDS011;4194;43.408;24.626;2022-08-19T04:56:07;14.57;;;9.57;;
8312;SDS011;4194;43.408;24.626;2022-08-19T04:58:35;18.57;;;9.90;;
8312;SDS011;4194;43.408;24.626;2022-08-19T05:01:02;17.43;;;10.50;;
8312;SDS011;4194;43.408;24.626;2022-08-19T05:03:28;20.20;;;9.97;;
8312;SDS011;4194;43.408;24.626;2022-08-19T05:05:57;16.07;;;9.73;;
8312;SDS011;4194;43.408;24.626;2022-08-19T05:08:23;14.97;;;9.63;;
8312;SDS011;4194;43.408;24.626;2022-08-19T05:10:50;18.20;;;10.13;;
8312;SDS011;4194;43.408;24.626;2022-08-19T05:13:17;16.90;;;9.30;;
8312;SDS011;4194;43.408;24.626;2022-08-19T05:15:44;15.23;;;9.30;;
8312;SDS011;4194;43.408;24.626;2022-08-19T05:18:17;17.47;;;9.87;;
8312;SDS011;4194;43.408;24.626;2022-08-19T05:21:05;16.10;;;9.07;;
8312;SDS011;4194;43.408;24.626;2022-08-19T05:23:50;18.87;;;10.10;;
8312;SDS011;4194;43.408;24.626;2022-08-19T05:26:16;17.33;;;10.13;;
8312;SDS011;4194;43.408;24.626;2022-08-19T05:28:42;14.50;;;9.20;;
8312;SDS011;4194;43.408;24.626;2022-08-19T05:31:08;11.50;;;8.63;;
8312;SDS011;4194;43.408;24.626;2022-08-19T05:33:34;12.90;;;8.80;;
8312;SDS011;4194;43.408;24.626;2022-08-19T05:36:00;18.13;;;8.00;;
8312;SDS011;4194;43.408;24.626;2022-08-19T05:38:28;13.37;;;8.67;;
8312;SDS011;4194;43.408;24.626;2022-08-19T05:40:55;11.73;;;7.73;;
8312;SDS011;4194;43.408;24.626;2022-08-19T05:43:20;11.63;;;8.10;;
8312;SDS011;4194;43.408;24.626;2022-08-19T05:45:46;9.27;;;8.20;;
8312;SDS011;4194;43.408;24.626;2022-08-19T05:48:12;7.63;;;6.93;;
8312;SDS011;4194;43.408;24.626;2022-08-19T05:50:39;8.57;;;7.37;;
8312;SDS011;4194;43.408;24.626;2022-08-19T05:53:06;8.30;;;7.37;;
8312;SDS011;4194;43.408;24.626;2022-08-19T05:55:33;10.10;;;6.03;;
8312;SDS011;4194;43.408;24.626;2022-08-19T05:58:00;8.40;;;7.17;;
8312;SDS011;4194;43.408;24.626;2022-08-19T06:00:26;10.43;;;6.97;;
8312;SDS011;4194;43.408;24.626;2022-08-19T06:02:52;12.23;;;6.40;;
8312;SDS011;4194;43.408;24.626;2022-08-19T06:05:27;8.93;;;5.80;;
8312;SDS011;4194;43.408;24.626;2022-08-19T06:07:54;9.03;;;6.07;;
8312;SDS011;4194;43.408;24.626;2022-08-19T06:10:20;6.63;;;5.50;;
8312;SDS011;4194;43.408;24.626;2022-08-19T06:12:46;6.77;;;5.60;;
8312;SDS011;4194;43.408;24.626;2022-08-19T06:15:13;8.10;;;5.60;;
8312;SDS011;4194;43.408;24.626;2022-08-19T06:17:39;6.03;;;5.40;;
8312;SDS011;4194;43.408;24.626;2022-08-19T06:20:08;9.23;;;5.87;;
8312;SDS011;4194;43.408;24.626;2022-08-19T06:22:39;7.13;;;5.47;;
8312;SDS011;4194;43.408;24.626;2022-08-19T06:25:05;6.17;;;5.17;;
8312;SDS011;4194;43.408;24.626;2022-08-19T06:27:31;6.40;;;5.70;;
8312;SDS011;4194;43.408;24.626;2022-08-19T06:29:58;7.03;;;5.40;;
8312;SDS011;4194;43.408;24.626;2022-08-19T06:32:23;6.63;;;5.33;;
8312;SDS011;4194;43.408;24.626;2022-08-19T06:34:50;7.27;;;5.70;;
8312;SDS011;4194;43.408;24.626;2022-08-19T06:37:15;6.47;;;5.33;;
8312;SDS011;4194;43.408;24.626;2022-08-19T06:39:42;7.40;;;5.13;;
8312;SDS011;4194;43.408;24.626;2022-08-19T06:42:10;7.73;;;5.63;;
8312;SDS011;4194;43.408;24.626;2022-08-19T06:44:41;10.90;;;5.43;;
8312;SDS011;4194;43.408;24.626;2022-08-19T06:47:09;13.83;;;5.83;;
8312;SDS011;4194;43.408;24.626;2022-08-19T06:49:36;7.53;;;5.50;;
8312;SDS011;4194;43.408;24.626;2022-08-19T06:52:02;6.40;;;5.10;;
8312;SDS011;4194;43.408;24.626;2022-08-19T06:54:29;7.63;;;5.33;;
8312;SDS011;4194;43.408;24.626;2022-08-19T06:56:56;5.80;;;5.30;;
8312;SDS011;4194;43.408;24.626;2022-08-19T06:59:24;7.53;;;5.27;;
8312;SDS011;4194;43.408;24.626;2022-08-19T07:01:54;6.53;;;5.17;;
8312;SDS011;4194;43.408;24.626;2022-08-19T07:04:25;7.27;;;5.50;;
8312;SDS011;4194;43.408;24.626;2022-08-19T07:06:56;6.20;;;5.17;;
8312;SDS011;4194;43.408;24.626;2022-08-19T07:09:22;9.23;;;5.23;;
8312;SDS011;4194;43.408;24.626;2022-08-19T07:11:49;5.60;;;5.07;;
8312;SDS011;4194;43.408;24.626;2022-08-19T07:14:18;9.03;;;5.40;;
8312;SDS011;4194;43.408;24.626;2022-08-19T07:16:46;5.90;;;4.80;;
8312;SDS011;4194;43.408;24.626;2022-08-19T07:19:13;6.50;;;5.03;;
8312;SDS011;4194;43.408;24.626;2022-08-19T07:21:39;6.20;;;5.30;;
8312;SDS011;4194;43.408;24.626;2022-08-19T07:24:06;6.93;;;5.77;;
8312;SDS011;4194;43.408;24.626;2022-08-19T07:26:33;6.53;;;5.50;;
8312;SDS011;4194;43.408;24.626;2022-08-19T07:31:58;5.50;;;5.00;;
8312;SDS011;4194;43.408;24.626;2022-08-19T07:34:25;8.83;;;5.17;;
8312;SDS011;4194;43.408;24.626;2022-08-19T07:36:52;5.90;;;5.17;;
8312;SDS011;4194;43.408;24.626;2022-08-19T07:39:20;5.77;;;4.77;;
8312;SDS011;4194;43.408;24.626;2022-08-19T07:41:51;7.93;;;5.23;;
8312;SDS011;4194;43.408;24.626;2022-08-19T07:44:18;9.40;;;5.30;;
8312;SDS011;4194;43.408;24.626;2022-08-19T07:46:47;16.83;;;5.07;;
8312;SDS011;4194;43.408;24.626;2022-08-19T07:49:17;13.57;;;5.50;;
8312;SDS011;4194;43.408;24.626;2022-08-19T07:52:04;8.67;;;4.97;;
8312;SDS011;4194;43.408;24.626;2022-08-19T07:54:50;5.63;;;4.93;;
8312;SDS011;4194;43.408;24.626;2022-08-19T07:57:17;9.27;;;4.97;;
8312;SDS011;4194;43.408;24.626;2022-08-19T07:59:44;5.60;;;4.87;;
8312;SDS011;4194;43.408;24.626;2022-08-19T08:02:09;6.17;;;4.60;;
8312;SDS011;4194;43.408;24.626;2022-08-19T08:04:35;12.97;;;5.13;;
8312;SDS011;4194;43.408;24.626;2022-08-19T08:07:19;6.97;;;4.68;;
8312;SDS011;4194;43.408;24.626;2022-08-19T08:10:04;7.72;;;4.78;;
8312;SDS011;4194;43.408;24.626;2022-08-19T08:12:36;8.37;;;5.23;;
8312;SDS011;4194;43.408;24.626;2022-08-19T08:15:07;7.20;;;5.10;;
8312;SDS011;4194;43.408;24.626;2022-08-19T08:17:41;5.07;;;4.67;;
8312;SDS011;4194;43.408;24.626;2022-08-19T08:20:07;6.27;;;5.07;;
8312;SDS011;4194;43.408;24.626;2022-08-19T08:22:33;6.32;;;4.80;;
8312;SDS011;4194;43.408;24.626;2022-08-19T08:25:19;6.87;;;4.40;;
8312;SDS011;4194;43.408;24.626;2022-08-19T08:27:47;6.03;;;4.70;;
8312;SDS011;4194;43.408;24.626;2022-08-19T08:30:24;4.93;;;4.53;;
8312;SDS011;4194;43.408;24.626;2022-08-19T08:32:53;5.85;;;5.05;;
8312;SDS011;4194;43.408;24.626;2022-08-19T08:35:20;7.22;;;4.47;;
8312;SDS011;4194;43.408;24.626;2022-08-19T08:37:48;10.05;;;4.80;;
8312;SDS011;4194;43.408;24.626;2022-08-19T08:40:18;4.65;;;4.25;;
8312;SDS011;4194;43.408;24.626;2022-08-19T08:48:42;8.55;;;5.03;;
8312;SDS011;4194;43.408;24.626;2022-08-19T08:51:12;4.55;;;4.15;;
8312;SDS011;4194;43.408;24.626;2022-08-19T08:53:46;5.13;;;4.63;;
8312;SDS011;4194;43.408;24.626;2022-08-19T08:56:15;5.75;;;4.43;;
8312;SDS011;4194;43.408;24.626;2022-08-19T08:59:03;4.50;;;4.15;;
8312;SDS011;4194;43.408;24.626;2022-08-19T09:01:35;8.60;;;5.25;;
8312;SDS011;4194;43.408;24.626;2022-08-19T09:04:05;10.43;;;4.90;;
8312;SDS011;4194;43.408;24.626;2022-08-19T09:09:17;5.63;;;4.97;;
8312;SDS011;4194;43.408;24.626;2022-08-19T09:11:59;11.63;;;4.93;;
8312;SDS011;4194;43.408;24.626;2022-08-19T09:17:26;5.65;;;5.10;;
8312;SDS011;4194;43.408;24.626;2022-08-19T09:20:12;5.80;;;5.28;;
8312;SDS011;4194;43.408;24.626;2022-08-19T09:22:46;5.03;;;4.60;;
8312;SDS011;4194;43.408;24.626;2022-08-19T09:25:15;8.10;;;4.88;;
8312;SDS011;4194;43.408;24.626;2022-08-19T09:27:42;7.82;;;4.78;;
8312;SDS011;4194;43.408;24.626;2022-08-19T09:30:10;4.80;;;4.40;;
8312;SDS011;4194;43.408;24.626;2022-08-19T09:32:39;5.28;;;4.88;;
8312;SDS011;4194;43.408;24.626;2022-08-19T09:35:06;5.63;;;4.43;;
8312;SDS011;4194;43.408;24.626;2022-08-19T09:37:32;5.63;;;4.65;;
8312;SDS011;4194;43.408;24.626;2022-08-19T09:39:58;6.20;;;5.55;;
8312;SDS011;4194;43.408;24.626;2022-08-19T09:42:24;6.63;;;5.07;;
8312;SDS011;4194;43.408;24.626;2022-08-19T09:44:49;11.13;;;4.72;;
8312;SDS011;4194;43.408;24.626;2022-08-19T09:47:15;9.85;;;5.20;;
8312;SDS011;4194;43.408;24.626;2022-08-19T09:49:41;7.97;;;4.95;;
8312;SDS011;4194;43.408;24.626;2022-08-19T09:52:11;6.90;;;5.28;;
8312;SDS011;4194;43.408;24.626;2022-08-19T09:54:37;9.65;;;5.30;;
8312;SDS011;4194;43.408;24.626;2022-08-19T09:57:03;8.13;;;5.35;;
8312;SDS011;4194;43.408;24.626;2022-08-19T09:59:30;8.30;;;4.82;;
8312;SDS011;4194;43.408;24.626;2022-08-19T10:01:56;5.63;;;5.00;;
8312;SDS011;4194;43.408;24.626;2022-08-19T10:04:22;6.22;;;5.20;;
8312;SDS011;4194;43.408;24.626;2022-08-19T10:06:48;9.25;;;5.20;;
8312;SDS011;4194;43.408;24.626;2022-08-19T10:09:16;7.80;;;5.03;;
8312;SDS011;4194;43.408;24.626;2022-08-19T10:11:43;6.68;;;5.00;;
8312;SDS011;4194;43.408;24.626;2022-08-19T10:14:15;7.30;;;4.90;;
8312;SDS011;4194;43.408;24.626;2022-08-19T10:16:41;5.28;;;4.78;;
8312;SDS011;4194;43.408;24.626;2022-08-19T10:19:08;10.77;;;5.30;;
8312;SDS011;4194;43.408;24.626;2022-08-19T10:21:34;5.32;;;4.40;;
8312;SDS011;4194;43.408;24.626;2022-08-19T10:24:03;5.13;;;4.55;;
8312;SDS011;4194;43.408;24.626;2022-08-19T10:26:31;8.98;;;4.72;;
8312;SDS011;4194;43.408;24.626;2022-08-19T10:29:02;5.70;;;4.45;;
8312;SDS011;4194;43.408;24.626;2022-08-19T10:31:30;6.13;;;5.13;;
8312;SDS011;4194;43.408;24.626;2022-08-19T10:33:59;5.10;;;4.65;;
8312;SDS011;4194;43.408;24.626;2022-08-19T10:36:27;7.40;;;5.10;;
8312;SDS011;4194;43.408;24.626;2022-08-19T10:38:56;8.27;;;5.43;;
8312;SDS011;4194;43.408;24.626;2022-08-19T10:41:27;5.75;;;4.85;;
8312;SDS011;4194;43.408;24.626;2022-08-19T10:43:55;6.57;;;4.90;;
8312;SDS011;4194;43.408;24.626;2022-08-19T10:46:23;8.50;;;4.75;;
8312;SDS011;4194;43.408;24.626;2022-08-19T10:48:50;5.88;;;4.72;;
8312;SDS011;4194;43.408;24.626;2022-08-19T10:51:17;5.03;;;4.53;;
8312;SDS011;4194;43.408;24.626;2022-08-19T10:54:02;7.05;;;4.75;;
8312;SDS011;4194;43.408;24.626;2022-08-19T10:56:29;5.57;;;4.68;;
8312;SDS011;4194;43.408;24.626;2022-08-19T10:59:14;11.18;;;5.22;;
8312;SDS011;4194;43.408;24.626;2022-08-19T11:01:41;6.55;;;4.63;;
8312;SDS011;4194;43.408;24.626;2022-08-19T11:04:07;5.95;;;4.78;;
8312;SDS011;4194;43.408;24.626;2022-08-19T11:06:38;5.93;;;4.05;;
8312;SDS011;4194;43.408;24.626;2022-08-19T11:09:05;5.55;;;4.43;;
8312;SDS011;4194;43.408;24.626;2022-08-19T11:11:31;6.05;;;4.40;;
8312;SDS011;4194;43.408;24.626;2022-08-19T11:13:57;6.20;;;4.70;;
8312;SDS011;4194;43.408;24.626;2022-08-19T11:16:23;8.35;;;4.63;;
8312;SDS011;4194;43.408;24.626;2022-08-19T11:18:52;5.35;;;4.43;;
8312;SDS011;4194;43.408;24.626;2022-08-19T11:21:28;5.65;;;4.40;;
8312;SDS011;4194;43.408;24.626;2022-08-19T11:24:05;7.72;;;4.70;;
8312;SDS011;4194;43.408;24.626;2022-08-19T11:26:33;9.20;;;5.05;;
8312;SDS011;4194;43.408;24.626;2022-08-19T11:29:00;5.68;;;4.88;;
8312;SDS011;4194;43.408;24.626;2022-08-19T11:31:28;6.68;;;4.78;;
8312;SDS011;4194;43.408;24.626;2022-08-19T11:33:59;7.15;;;5.03;;
8312;SDS011;4194;43.408;24.626;2022-08-19T11:36:26;5.18;;;4.68;;
8312;SDS011;4194;43.408;24.626;2022-08-19T11:38:53;6.30;;;5.07;;
8312;SDS011;4194;43.408;24.626;2022-08-19T11:41:20;6.90;;;4.85;;
8312;SDS011;4194;43.408;24.626;2022-08-19T11:43:48;11.77;;;4.28;;
8312;SDS011;4194;43.408;24.626;2022-08-19T11:46:14;4.60;;;4.20;;
8312;SDS011;4194;43.408;24.626;2022-08-19T11:48:41;6.60;;;4.80;;
8312;SDS011;4194;43.408;24.626;2022-08-19T11:51:10;6.15;;;4.03;;
8312;SDS011;4194;43.408;24.626;2022-08-19T11:53:38;6.15;;;4.68;;
8312;SDS011;4194;43.408;24.626;2022-08-19T11:56:05;6.45;;;4.43;;
8312;SDS011;4194;43.408;24.626;2022-08-19T11:58:32;4.72;;;4.25;;
8312;SDS011;4194;43.408;24.626;2022-08-19T12:00:57;4.30;;;3.90;;
8312;SDS011;4194;43.408;24.626;2022-08-19T12:03:23;6.25;;;4.25;;
8312;SDS011;4194;43.408;24.626;2022-08-19T12:05:49;5.43;;;4.18;;
8312;SDS011;4194;43.408;24.626;2022-08-19T12:08:16;4.88;;;4.43;;
8312;SDS011;4194;43.408;24.626;2022-08-19T12:10:42;5.05;;;4.50;;
8312;SDS011;4194;43.408;24.626;2022-08-19T12:13:09;6.90;;;4.50;;
8312;SDS011;4194;43.408;24.626;2022-08-19T12:15:36;4.20;;;3.80;;
8312;SDS011;4194;43.408;24.626;2022-08-19T12:18:03;4.72;;;4.32;;
8312;SDS011;4194;43.408;24.626;2022-08-19T12:20:29;4.68;;;4.25;;
8312;SDS011;4194;43.408;24.626;2022-08-19T12:22:55;7.43;;;4.53;;
8312;SDS011;4194;43.408;24.626;2022-08-19T12:25:20;5.93;;;4.40;;
8312;SDS011;4194;43.408;24.626;2022-08-19T12:27:46;6.25;;;4.25;;
8312;SDS011;4194;43.408;24.626;2022-08-19T12:30:13;4.75;;;4.35;;
8312;SDS011;4194;43.408;24.626;2022-08-19T12:32:38;5.07;;;4.10;;
8312;SDS011;4194;43.408;24.626;2022-08-19T12:35:05;4.88;;;3.88;;
8312;SDS011;4194;43.408;24.626;2022-08-19T12:37:33;7.88;;;4.40;;
8312;SDS011;4194;43.408;24.626;2022-08-19T12:39:59;4.78;;;4.30;;
8312;SDS011;4194;43.408;24.626;2022-08-19T12:42:24;6.97;;;3.80;;
8312;SDS011;4194;43.408;24.626;2022-08-19T12:44:50;4.78;;;4.32;;
8312;SDS011;4194;43.408;24.626;2022-08-19T12:47:17;5.93;;;4.28;;
8312;SDS011;4194;43.408;24.626;2022-08-19T12:49:43;5.05;;;4.65;;
8312;SDS011;4194;43.408;24.626;2022-08-19T12:52:09;6.30;;;4.75;;
8312;SDS011;4194;43.408;24.626;2022-08-19T12:54:35;6.63;;;4.20;;
8312;SDS011;4194;43.408;24.626;2022-08-19T12:57:05;7.15;;;4.40;;
8312;SDS011;4194;43.408;24.626;2022-08-19T12:59:33;4.97;;;4.38;;
8312;SDS011;4194;43.408;24.626;2022-08-19T13:02:01;5.75;;;4.35;;
8312;SDS011;4194;43.408;24.626;2022-08-19T13:04:28;6.88;;;4.55;;
8312;SDS011;4194;43.408;24.626;2022-08-19T13:06:54;5.63;;;4.60;;
8312;SDS011;4194;43.408;24.626;2022-08-19T13:09:21;7.25;;;4.75;;
8312;SDS011;4194;43.408;24.626;2022-08-19T13:11:47;5.70;;;4.40;;
8312;SDS011;4194;43.408;24.626;2022-08-19T13:14:12;4.55;;;4.15;;
8312;SDS011;4194;43.408;24.626;2022-08-19T13:16:38;8.55;;;5.15;;
8312;SDS011;4194;43.408;24.626;2022-08-19T13:19:05;7.68;;;5.07;;
8312;SDS011;4194;43.408;24.626;2022-08-19T13:21:32;9.15;;;4.55;;
8312;SDS011;4194;43.408;24.626;2022-08-19T13:23:58;5.13;;;4.72;;
8312;SDS011;4194;43.408;24.626;2022-08-19T13:26:24;6.28;;;5.18;;
8312;SDS011;4194;43.408;24.626;2022-08-19T13:28:50;10.68;;;4.40;;
8312;SDS011;4194;43.408;24.626;2022-08-19T13:31:36;5.10;;;4.55;;
8312;SDS011;4194;43.408;24.626;2022-08-19T13:34:30;9.70;;;4.97;;
8312;SDS011;4194;43.408;24.626;2022-08-19T13:36:58;7.13;;;4.65;;
8312;SDS011;4194;43.408;24.626;2022-08-19T13:39:28;5.00;;;4.40;;
8312;SDS011;4194;43.408;24.626;2022-08-19T13:41:54;6.82;;;4.15;;
8312;SDS011;4194;43.408;24.626;2022-08-19T13:44:20;6.47;;;3.80;;
8312;SDS011;4194;43.408;24.626;2022-08-19T13:46:46;5.80;;;4.50;;
8312;SDS011;4194;43.408;24.626;2022-08-19T13:49:14;5.97;;;4.15;;
8312;SDS011;4194;43.408;24.626;2022-08-19T13:51:40;5.93;;;4.38;;
8312;SDS011;4194;43.408;24.626;2022-08-19T13:54:08;10.73;;;4.32;;
8312;SDS011;4194;43.408;24.626;2022-08-19T13:56:35;5.78;;;4.47;;
8312;SDS011;4194;43.408;24.626;2022-08-19T13:59:04;6.72;;;4.68;;
8312;SDS011;4194;43.408;24.626;2022-08-19T14:01:30;7.22;;;4.90;;
8312;SDS011;4194;43.408;24.626;2022-08-19T14:03:56;6.75;;;4.72;;
8312;SDS011;4194;43.408;24.626;2022-08-19T14:06:22;5.30;;;3.95;;
8312;SDS011;4194;43.408;24.626;2022-08-19T14:08:48;7.55;;;4.47;;
8312;SDS011;4194;43.408;24.626;2022-08-19T14:11:14;5.45;;;4.40;;
8312;SDS011;4194;43.408;24.626;2022-08-19T14:13:40;8.80;;;4.20;;
8312;SDS011;4194;43.408;24.626;2022-08-19T14:16:11;4.90;;;4.38;;
8312;SDS011;4194;43.408;24.626;2022-08-19T14:18:37;7.68;;;4.25;;
8312;SDS011;4194;43.408;24.626;2022-08-19T14:21:04;4.60;;;4.20;;
8312;SDS011;4194;43.408;24.626;2022-08-19T14:23:32;4.57;;;4.13;;
8312;SDS011;4194;43.408;24.626;2022-08-19T14:26:09;5.97;;;3.90;;
8312;SDS011;4194;43.408;24.626;2022-08-19T14:28:37;8.73;;;4.10;;
8312;SDS011;4194;43.408;24.626;2022-08-19T14:31:05;5.88;;;4.25;;
8312;SDS011;4194;43.408;24.626;2022-08-19T14:33:32;4.68;;;4.00;;
8312;SDS011;4194;43.408;24.626;2022-08-19T14:35:57;10.80;;;4.75;;
8312;SDS011;4194;43.408;24.626;2022-08-19T14:38:25;5.53;;;4.35;;
8312;SDS011;4194;43.408;24.626;2022-08-19T14:40:51;5.75;;;4.25;;
8312;SDS011;4194;43.408;24.626;2022-08-19T14:43:17;5.80;;;3.85;;
8312;SDS011;4194;43.408;24.626;2022-08-19T14:45:43;4.65;;;4.22;;
8312;SDS011;4194;43.408;24.626;2022-08-19T14:48:09;8.02;;;4.40;;
8312;SDS011;4194;43.408;24.626;2022-08-19T14:50:35;4.13;;;3.75;;
8312;SDS011;4194;43.408;24.626;2022-08-19T14:53:06;6.50;;;3.78;;
8312;SDS011;4194;43.408;24.626;2022-08-19T14:55:33;6.47;;;3.92;;
8312;SDS011;4194;43.408;24.626;2022-08-19T14:57:59;6.00;;;4.07;;
8312;SDS011;4194;43.408;24.626;2022-08-19T15:00:26;8.60;;;5.05;;
8312;SDS011;4194;43.408;24.626;2022-08-19T15:02:51;10.88;;;4.45;;
8312;SDS011;4194;43.408;24.626;2022-08-19T15:05:19;10.93;;;4.47;;
8312;SDS011;4194;43.408;24.626;2022-08-19T15:07:45;7.18;;;4.30;;
8312;SDS011;4194;43.408;24.626;2022-08-19T15:10:12;5.63;;;4.68;;
8312;SDS011;4194;43.408;24.626;2022-08-19T15:12:39;9.65;;;4.60;;
8312;SDS011;4194;43.408;24.626;2022-08-19T15:15:06;10.10;;;4.70;;
8312;SDS011;4194;43.408;24.626;2022-08-19T15:17:33;7.55;;;5.15;;